createdAt,value
2023-05-22T00:00:03.867Z,16.9
2023-05-22T00:02:03.816Z,17
2023-05-22T00:03:03.911Z,17
2023-05-22T00:04:03.849Z,17
2023-05-22T00:05:03.924Z,17
2023-05-22T00:06:03.827Z,16.9
2023-05-22T00:07:03.870Z,16.9
2023-05-22T00:08:03.828Z,16.9
2023-05-22T00:09:03.810Z,16.9
2023-05-22T00:10:03.834Z,16.9
2023-05-22T00:11:03.827Z,16.9
2023-05-22T00:12:03.889Z,16.9
2023-05-22T00:13:03.845Z,16.8
2023-05-22T00:14:03.886Z,16.9
2023-05-22T00:15:03.822Z,16.8
2023-05-22T00:16:03.875Z,16.8
2023-05-22T00:17:03.957Z,16.8
2023-05-22T00:18:04.086Z,16.8
2023-05-22T00:19:03.970Z,16.8
2023-05-22T00:20:03.846Z,16.8
2023-05-22T00:21:03.819Z,16.9
2023-05-22T00:22:03.819Z,16.9
2023-05-22T00:23:03.808Z,16.9
2023-05-22T00:24:03.826Z,16.9
2023-05-22T00:25:03.830Z,16.9
2023-05-22T00:26:03.818Z,16.9
2023-05-22T00:27:03.831Z,16.9
2023-05-22T00:28:03.845Z,16.9
2023-05-22T00:29:03.864Z,16.9
2023-05-22T00:30:03.835Z,16.8
2023-05-22T00:31:03.815Z,16.9
2023-05-22T00:32:03.838Z,16.8
2023-05-22T00:33:03.918Z,16.8
2023-05-22T00:34:03.882Z,16.8
2023-05-22T00:35:03.811Z,16.8
2023-05-22T00:36:03.852Z,16.8
2023-05-22T00:37:03.848Z,16.8
2023-05-22T00:38:03.823Z,16.8
2023-05-22T00:39:03.817Z,16.8
2023-05-22T00:40:03.828Z,16.8
2023-05-22T00:41:03.842Z,16.8
2023-05-22T00:42:03.828Z,16.7
2023-05-22T00:44:03.831Z,16.7
2023-05-22T00:45:03.859Z,16.7
2023-05-22T00:46:03.876Z,16.7
2023-05-22T00:47:03.856Z,16.7
2023-05-22T00:48:03.879Z,16.7
2023-05-22T00:49:03.821Z,16.7
2023-05-22T00:50:03.844Z,16.7
2023-05-22T00:51:03.883Z,16.7
2023-05-22T00:52:03.845Z,16.7
2023-05-22T00:53:03.933Z,16.7
2023-05-22T00:55:03.849Z,16.7
2023-05-22T00:56:03.841Z,16.7
2023-05-22T00:57:03.832Z,16.7
2023-05-22T00:58:03.849Z,16.7
2023-05-22T00:59:03.821Z,16.7
2023-05-22T01:00:03.846Z,16.6
2023-05-22T01:01:03.831Z,16.7
2023-05-22T01:02:03.886Z,16.7
2023-05-22T01:03:03.908Z,16.7
2023-05-22T01:04:04.007Z,16.6
2023-05-22T01:08:03.847Z,16.7
2023-05-22T01:09:14.126Z,16.7
2023-05-22T01:10:14.122Z,16.7
2023-05-22T01:11:03.840Z,16.7
2023-05-22T01:12:03.834Z,16.8
2023-05-22T01:13:03.837Z,16.8
2023-05-22T01:14:03.823Z,16.8
2023-05-22T01:15:03.841Z,16.7
2023-05-22T01:16:03.867Z,16.7
2023-05-22T01:17:03.884Z,16.7
2023-05-22T01:18:03.860Z,16.6
2023-05-22T01:19:03.888Z,16.6
2023-05-22T01:20:03.826Z,16.6
2023-05-22T01:21:03.847Z,16.6
2023-05-22T01:22:03.844Z,16.7
2023-05-22T01:23:03.870Z,16.7
2023-05-22T01:25:03.850Z,16.7
2023-05-22T01:26:03.902Z,16.8
2023-05-22T01:27:03.868Z,16.7
2023-05-22T01:28:03.858Z,16.7
2023-05-22T01:29:03.867Z,16.7
2023-05-22T01:30:03.840Z,16.6
2023-05-22T01:31:03.890Z,16.6
2023-05-22T01:32:03.831Z,16.6
2023-05-22T01:33:03.987Z,16.6
2023-05-22T01:34:03.953Z,16.5
2023-05-22T01:35:03.865Z,16.5
2023-05-22T01:36:03.836Z,16.5
2023-05-22T01:37:03.842Z,16.5
2023-05-22T01:38:03.915Z,16.5
2023-05-22T01:39:03.841Z,16.5
2023-05-22T01:40:03.835Z,16.5
2023-05-22T01:41:03.859Z,16.5
2023-05-22T01:42:03.854Z,16.5
2023-05-22T01:43:03.852Z,16.4
2023-05-22T01:44:03.842Z,16.4
2023-05-22T01:45:03.836Z,16.4
2023-05-22T01:46:03.905Z,16.4
2023-05-22T01:47:03.858Z,16.4
2023-05-22T01:48:03.837Z,16.4
2023-05-22T01:49:03.855Z,16.3
2023-05-22T01:50:03.874Z,16.3
2023-05-22T01:51:03.840Z,16.3
2023-05-22T01:52:03.832Z,16.3
2023-05-22T01:53:03.825Z,16.3
2023-05-22T01:54:03.851Z,16.3
2023-05-22T01:55:03.843Z,16.3
2023-05-22T01:56:03.843Z,16.2
2023-05-22T01:57:03.861Z,16.2
2023-05-22T01:58:03.930Z,16.2
2023-05-22T01:59:03.928Z,16.3
2023-05-22T02:00:03.836Z,16.3
2023-05-22T02:01:03.896Z,16.2
2023-05-22T02:02:03.893Z,16.3
2023-05-22T02:03:03.917Z,16.3
2023-05-22T02:04:03.841Z,16.3
2023-05-22T02:05:03.860Z,16.3
2023-05-22T02:06:03.861Z,16.3
2023-05-22T02:07:03.848Z,16.3
2023-05-22T02:08:03.856Z,16.2
2023-05-22T02:09:03.847Z,16.2
2023-05-22T02:10:03.867Z,16.2
2023-05-22T02:11:03.838Z,16.2
2023-05-22T02:12:03.844Z,16.2
2023-05-22T02:13:03.847Z,16.2
2023-05-22T02:14:03.836Z,16.2
2023-05-22T02:15:03.830Z,16.2
2023-05-22T02:16:03.896Z,16.2
2023-05-22T02:17:03.844Z,16.2
2023-05-22T02:18:03.931Z,16.1
2023-05-22T02:19:03.897Z,16.1
2023-05-22T02:20:03.850Z,16.1
2023-05-22T02:21:03.858Z,16.1
2023-05-22T02:22:03.856Z,16.1
2023-05-22T02:23:03.886Z,16.1
2023-05-22T02:24:03.872Z,16.2
2023-05-22T02:25:03.904Z,16.1
2023-05-22T02:26:03.959Z,16.1
2023-05-22T02:27:03.883Z,16.1
2023-05-22T02:28:03.939Z,16
2023-05-22T02:29:03.896Z,16.1
2023-05-22T02:30:03.849Z,16.1
2023-05-22T02:31:04.000Z,16
2023-05-22T02:32:03.879Z,16
2023-05-22T02:33:03.955Z,16
2023-05-22T02:34:03.883Z,16.1
2023-05-22T02:35:03.850Z,16
2023-05-22T02:37:03.884Z,16.1
2023-05-22T02:38:03.921Z,16
2023-05-22T02:39:03.868Z,16
2023-05-22T02:40:03.863Z,16
2023-05-22T02:41:03.870Z,16
2023-05-22T02:42:03.878Z,16
2023-05-22T02:43:03.871Z,16
2023-05-22T02:44:03.839Z,16
2023-05-22T02:45:03.924Z,16
2023-05-22T02:47:03.924Z,16
2023-05-22T02:48:04.052Z,16
2023-05-22T02:49:03.854Z,16
2023-05-22T02:50:03.840Z,16
2023-05-22T02:52:03.851Z,15.9
2023-05-22T02:53:03.842Z,15.9
2023-05-22T02:54:03.841Z,15.9
2023-05-22T02:55:03.863Z,15.9
2023-05-22T02:56:03.904Z,15.8
2023-05-22T02:57:03.844Z,15.8
2023-05-22T02:58:03.863Z,15.8
2023-05-22T02:59:03.853Z,15.8
2023-05-22T03:00:03.847Z,15.8
2023-05-22T03:01:03.871Z,15.8
2023-05-22T03:02:03.919Z,15.7
2023-05-22T03:03:03.876Z,15.6
2023-05-22T03:04:03.969Z,15.6
2023-05-22T03:05:03.849Z,15.6
2023-05-22T03:06:03.910Z,15.5
2023-05-22T03:07:03.852Z,15.6
2023-05-22T03:08:03.852Z,15.6
2023-05-22T03:09:03.842Z,15.7
2023-05-22T03:10:03.873Z,15.7
2023-05-22T03:11:03.865Z,15.7
2023-05-22T03:12:03.848Z,15.6
2023-05-22T03:13:03.892Z,15.6
2023-05-22T03:14:03.856Z,15.6
2023-05-22T03:15:03.869Z,15.6
2023-05-22T03:16:03.898Z,15.6
2023-05-22T03:17:03.847Z,15.6
2023-05-22T03:18:03.906Z,15.6
2023-05-22T03:19:03.871Z,15.6
2023-05-22T03:20:03.854Z,15.6
2023-05-22T03:22:03.945Z,15.5
2023-05-22T03:23:03.875Z,15.5
2023-05-22T03:24:03.838Z,15.6
2023-05-22T03:25:03.865Z,15.6
2023-05-22T03:26:03.880Z,15.6
2023-05-22T03:27:03.843Z,15.6
2023-05-22T03:28:03.843Z,15.6
2023-05-22T03:29:03.932Z,15.7
2023-05-22T03:30:03.868Z,15.6
2023-05-22T03:31:03.852Z,15.6
2023-05-22T03:32:03.872Z,15.6
2023-05-22T03:33:03.877Z,15.6
2023-05-22T03:34:03.918Z,15.5
2023-05-22T03:35:03.907Z,15.5
2023-05-22T03:37:03.861Z,15.5
2023-05-22T03:38:03.891Z,15.5
2023-05-22T03:39:03.847Z,15.5
2023-05-22T03:40:03.859Z,15.5
2023-05-22T03:41:03.870Z,15.4
2023-05-22T03:42:03.868Z,15.4
2023-05-22T03:43:03.908Z,15.4
2023-05-22T03:44:03.885Z,15.5
2023-05-22T03:45:03.867Z,15.5
2023-05-22T03:46:03.915Z,15.5
2023-05-22T03:47:03.856Z,15.5
2023-05-22T03:48:03.888Z,15.5
2023-05-22T03:49:03.861Z,15.5
2023-05-22T03:50:03.848Z,15.5
2023-05-22T03:51:03.862Z,15.4
2023-05-22T03:52:03.874Z,15.4
2023-05-22T03:54:03.857Z,15.4
2023-05-22T03:55:03.861Z,15.4
2023-05-22T03:56:03.864Z,15.4
2023-05-22T03:57:03.883Z,15.4
2023-05-22T03:58:03.853Z,15.5
2023-05-22T03:59:03.864Z,15.5
2023-05-22T04:00:03.876Z,15.5
2023-05-22T04:01:03.846Z,15.5
2023-05-22T04:02:03.932Z,15.5
2023-05-22T04:03:03.914Z,15.4
2023-05-22T04:04:03.869Z,15.4
2023-05-22T04:05:03.900Z,15.4
2023-05-22T04:06:03.867Z,15.4
2023-05-22T04:07:03.871Z,15.4
2023-05-22T04:08:03.885Z,15.4
2023-05-22T04:09:03.870Z,15.3
2023-05-22T04:10:03.854Z,15.3
2023-05-22T04:11:03.889Z,15.4
2023-05-22T04:12:03.902Z,15.4
2023-05-22T04:13:03.858Z,15.4
2023-05-22T04:14:03.895Z,15.5
2023-05-22T04:15:03.874Z,15.3
2023-05-22T04:16:03.938Z,15.3
2023-05-22T04:17:03.875Z,15.4
2023-05-22T04:18:03.893Z,15.4
2023-05-22T04:19:03.933Z,15.4
2023-05-22T04:20:03.890Z,15.4
2023-05-22T04:21:03.906Z,15.5
2023-05-22T04:22:03.853Z,15.5
2023-05-22T04:23:03.881Z,15.5
2023-05-22T04:24:03.865Z,15.5
2023-05-22T04:25:04.025Z,15.6
2023-05-22T04:26:03.870Z,15.6
2023-05-22T04:27:03.863Z,15.5
2023-05-22T04:28:03.909Z,15.5
2023-05-22T04:29:03.891Z,15.5
2023-05-22T04:30:03.861Z,15.5
2023-05-22T04:31:03.910Z,15.5
2023-05-22T04:32:03.871Z,15.5
2023-05-22T04:33:03.933Z,15.6
2023-05-22T04:34:03.886Z,15.5
2023-05-22T04:35:03.879Z,15.5
2023-05-22T04:37:03.870Z,15.5
2023-05-22T04:38:03.872Z,15.6
2023-05-22T04:39:03.867Z,15.5
2023-05-22T04:40:03.876Z,15.5
2023-05-22T04:41:03.870Z,15.6
2023-05-22T04:42:03.869Z,15.6
2023-05-22T04:43:03.882Z,15.6
2023-05-22T04:44:03.891Z,15.6
2023-05-22T04:45:03.863Z,15.7
2023-05-22T04:46:03.881Z,15.7
2023-05-22T04:47:05.989Z,15.7
2023-05-22T04:48:03.935Z,15.7
2023-05-22T04:49:03.869Z,15.7
2023-05-22T04:50:03.896Z,15.8
2023-05-22T04:51:03.881Z,15.7
2023-05-22T04:52:03.866Z,15.8
2023-05-22T04:53:03.885Z,15.8
2023-05-22T04:54:03.886Z,15.8
2023-05-22T04:55:05.950Z,15.9
2023-05-22T04:56:03.857Z,15.7
2023-05-22T04:57:03.873Z,15.7
2023-05-22T04:58:03.877Z,15.7
2023-05-22T04:59:03.865Z,15.8
2023-05-22T05:00:03.872Z,15.8
2023-05-22T05:01:03.913Z,15.8
2023-05-22T05:02:03.873Z,15.8
2023-05-22T05:03:04.062Z,15.8
2023-05-22T05:04:04.164Z,15.9
2023-05-22T05:05:03.894Z,15.8
2023-05-22T05:06:03.867Z,15.9
2023-05-22T05:07:03.953Z,15.9
2023-05-22T05:08:03.876Z,16
2023-05-22T05:09:03.875Z,16
2023-05-22T05:10:03.868Z,16
2023-05-22T05:11:03.880Z,16
2023-05-22T05:12:03.878Z,16
2023-05-22T05:13:03.879Z,16.1
2023-05-22T05:14:03.875Z,16
2023-05-22T05:15:03.879Z,16
2023-05-22T05:16:03.894Z,16
2023-05-22T05:17:03.915Z,16.2
2023-05-22T05:18:03.937Z,16.2
2023-05-22T05:19:03.985Z,16.2
2023-05-22T05:20:03.892Z,16.2
2023-05-22T05:22:03.900Z,16.3
2023-05-22T05:23:03.887Z,16.4
2023-05-22T05:24:03.892Z,16.3
2023-05-22T05:25:03.868Z,16.3
2023-05-22T05:26:03.884Z,16.3
2023-05-22T05:27:03.878Z,16.4
2023-05-22T05:28:03.872Z,16.4
2023-05-22T05:29:03.856Z,16.4
2023-05-22T05:30:03.883Z,16.5
2023-05-22T05:31:03.863Z,16.5
2023-05-22T05:32:03.926Z,16.5
2023-05-22T05:33:03.936Z,16.5
2023-05-22T05:34:03.885Z,16.5
2023-05-22T05:36:04.206Z,16.7
2023-05-22T05:37:03.894Z,16.8
2023-05-22T05:38:03.963Z,16.8
2023-05-22T05:39:03.920Z,16.9
2023-05-22T05:40:03.901Z,16.9
2023-05-22T05:41:03.952Z,17
2023-05-22T05:42:03.910Z,16.9
2023-05-22T05:43:03.866Z,17
2023-05-22T05:44:03.889Z,17
2023-05-22T05:45:03.866Z,17
2023-05-22T05:46:03.924Z,17.1
2023-05-22T05:47:03.880Z,17.1
2023-05-22T05:48:03.959Z,17.2
2023-05-22T05:49:03.886Z,17.2
2023-05-22T05:50:03.876Z,17.2
2023-05-22T05:51:03.896Z,17.2
2023-05-22T05:52:03.890Z,17.2
2023-05-22T05:53:03.892Z,17.3
2023-05-22T05:54:03.919Z,17.2
2023-05-22T05:55:03.920Z,17.3
2023-05-22T05:57:03.897Z,17.3
2023-05-22T05:58:03.904Z,17.3
2023-05-22T05:59:03.891Z,17.4
2023-05-22T06:00:03.902Z,17.4
2023-05-22T06:01:03.898Z,17.4
2023-05-22T06:02:03.885Z,17.4
2023-05-22T06:03:03.938Z,17.5
2023-05-22T06:04:03.982Z,17.5
2023-05-22T06:05:03.886Z,17.5
2023-05-22T06:06:03.908Z,17.5
2023-05-22T06:07:03.882Z,17.5
2023-05-22T06:08:03.897Z,17.6
2023-05-22T06:09:03.888Z,17.7
2023-05-22T06:10:03.880Z,17.7
2023-05-22T06:12:03.910Z,17.7
2023-05-22T06:13:03.881Z,17.7
2023-05-22T06:14:03.897Z,17.7
2023-05-22T06:15:03.892Z,17.7
2023-05-22T06:16:06.412Z,17.7
2023-05-22T06:17:03.878Z,17.7
2023-05-22T06:18:03.921Z,17.7
2023-05-22T06:19:03.912Z,17.8
2023-05-22T06:20:03.907Z,17.7
2023-05-22T06:22:03.896Z,17.7
2023-05-22T06:23:03.882Z,17.7
2023-05-22T06:24:03.896Z,17.6
2023-05-22T06:25:03.898Z,17.7
2023-05-22T06:26:03.927Z,17.7
2023-05-22T06:27:03.894Z,17.8
2023-05-22T06:28:03.898Z,17.7
2023-05-22T06:29:03.888Z,17.7
2023-05-22T06:30:04.866Z,17.7
2023-05-22T06:31:03.884Z,17.7
2023-05-22T06:32:03.939Z,17.8
2023-05-22T06:33:03.947Z,17.8
2023-05-22T06:34:04.012Z,17.7
2023-05-22T06:35:03.901Z,17.8
2023-05-22T06:37:03.921Z,17.8
2023-05-22T06:38:03.925Z,17.9
2023-05-22T06:39:03.890Z,17.8
2023-05-22T06:40:03.915Z,17.7
2023-05-22T06:41:03.894Z,17.7
2023-05-22T06:42:03.931Z,17.7
2023-05-22T06:43:03.919Z,17.7
2023-05-22T06:44:03.908Z,17.6
2023-05-22T06:45:03.904Z,17.6
2023-05-22T06:46:03.910Z,17.7
2023-05-22T06:47:03.911Z,17.7
2023-05-22T06:48:03.990Z,17.8
2023-05-22T06:49:03.957Z,17.9
2023-05-22T06:50:03.888Z,17.8
2023-05-22T06:51:03.914Z,17.8
2023-05-22T06:52:05.320Z,17.8
2023-05-22T06:53:03.894Z,17.8
2023-05-22T06:54:03.927Z,17.8
2023-05-22T06:55:03.919Z,17.8
2023-05-22T06:56:03.904Z,18
2023-05-22T06:57:03.917Z,17.9
2023-05-22T06:58:03.891Z,18
2023-05-22T06:59:05.431Z,18
2023-05-22T07:00:03.908Z,18
2023-05-22T07:01:04.033Z,18
2023-05-22T07:02:03.913Z,18
2023-05-22T07:03:03.968Z,18.1
2023-05-22T07:04:03.885Z,18.1
2023-05-22T07:05:03.913Z,18.1
2023-05-22T07:06:03.990Z,18.2
2023-05-22T07:07:03.896Z,18.2
2023-05-22T07:08:03.900Z,18.2
2023-05-22T07:09:03.912Z,18.3
2023-05-22T07:11:03.900Z,18.2
2023-05-22T07:12:03.908Z,18.2
2023-05-22T07:13:03.937Z,18.2
2023-05-22T07:14:03.912Z,18.2
2023-05-22T07:15:03.912Z,18.2
2023-05-22T07:16:03.933Z,18.2
2023-05-22T07:17:03.893Z,18.2
2023-05-22T07:18:04.076Z,18.1
2023-05-22T07:19:03.960Z,18.1
2023-05-22T07:20:03.895Z,18.1
2023-05-22T07:21:03.915Z,18.2
2023-05-22T07:22:03.903Z,18
2023-05-22T07:23:03.916Z,18.1
2023-05-22T07:24:03.900Z,18.1
2023-05-22T07:25:03.911Z,18.2
2023-05-22T07:26:03.905Z,18.2
2023-05-22T07:27:03.891Z,18.2
2023-05-22T07:28:03.916Z,18.2
2023-05-22T07:29:03.906Z,18
2023-05-22T07:30:03.915Z,18
2023-05-22T07:31:03.928Z,18
2023-05-22T07:32:03.999Z,18
2023-05-22T07:33:03.976Z,18
2023-05-22T07:34:03.907Z,18
2023-05-22T07:35:03.918Z,18.1
2023-05-22T07:36:03.907Z,18.2
2023-05-22T07:37:03.907Z,18.2
2023-05-22T07:38:03.996Z,18.3
2023-05-22T07:39:03.905Z,18.4
2023-05-22T07:40:03.979Z,18.5
2023-05-22T07:41:03.903Z,18.5
2023-05-22T07:42:03.893Z,18.6
2023-05-22T07:43:03.912Z,18.6
2023-05-22T07:44:03.911Z,18.7
2023-05-22T07:45:03.910Z,18.7
2023-05-22T07:46:03.964Z,18.7
2023-05-22T07:47:03.941Z,18.6
2023-05-22T07:48:03.975Z,18.7
2023-05-22T07:49:03.918Z,18.7
2023-05-22T07:50:03.907Z,18.7
2023-05-22T07:51:03.925Z,18.9
2023-05-22T07:52:03.901Z,18.9
2023-05-22T07:53:03.954Z,19
2023-05-22T07:54:03.930Z,19.1
2023-05-22T07:55:03.911Z,19.1
2023-05-22T07:56:03.894Z,19.1
2023-05-22T07:57:03.971Z,19.2
2023-05-22T07:58:03.918Z,19.2
2023-05-22T07:59:03.922Z,19.3
2023-05-22T08:01:03.918Z,19.3
2023-05-22T08:02:04.057Z,19.4
2023-05-22T08:03:03.981Z,19.5
2023-05-22T08:04:03.986Z,19.5
2023-05-22T08:05:03.969Z,19.5
2023-05-22T08:06:03.921Z,19.5
2023-05-22T08:07:03.894Z,19.5
2023-05-22T08:08:03.926Z,19.5
2023-05-22T08:09:03.907Z,19.6
2023-05-22T08:10:03.916Z,19.6
2023-05-22T08:12:03.913Z,19.7
2023-05-22T08:13:03.912Z,19.7
2023-05-22T08:14:03.926Z,19.8
2023-05-22T08:15:03.908Z,19.8
2023-05-22T08:16:03.906Z,19.7
2023-05-22T08:17:03.932Z,19.7
2023-05-22T08:18:03.989Z,19.7
2023-05-22T08:19:04.003Z,19.7
2023-05-22T08:20:04.076Z,19.7
2023-05-22T08:21:03.911Z,19.8
2023-05-22T08:22:03.899Z,19.9
2023-05-22T08:23:03.977Z,19.9
2023-05-22T08:24:03.907Z,20
2023-05-22T08:25:03.905Z,19.8
2023-05-22T08:26:03.935Z,19.7
2023-05-22T08:27:03.924Z,19.7
2023-05-22T08:28:03.897Z,19.6
2023-05-22T08:29:03.947Z,19.6
2023-05-22T08:30:03.921Z,19.7
2023-05-22T08:31:04.054Z,19.7
2023-05-22T08:32:04.050Z,19.6
2023-05-22T08:33:03.929Z,19.5
2023-05-22T08:34:03.941Z,19.3
2023-05-22T08:35:03.912Z,19.4
2023-05-22T08:36:03.921Z,19.5
2023-05-22T08:37:03.935Z,19.6
2023-05-22T08:38:03.997Z,19.7
2023-05-22T08:39:03.934Z,19.8
2023-05-22T08:40:03.916Z,19.6
2023-05-22T08:41:03.910Z,19.7
2023-05-22T08:42:03.940Z,19.8
2023-05-22T08:43:04.015Z,20
2023-05-22T08:44:03.918Z,20.1
2023-05-22T08:45:03.964Z,20.2
2023-05-22T08:46:03.904Z,20.1
2023-05-22T08:47:03.947Z,20.2
2023-05-22T08:48:04.022Z,20.3
2023-05-22T08:49:03.911Z,20.3
2023-05-22T08:50:03.913Z,20.4
2023-05-22T08:52:03.921Z,20.3
2023-05-22T08:53:03.932Z,20.1
2023-05-22T08:54:03.914Z,20.2
2023-05-22T08:55:03.942Z,20.3
2023-05-22T08:56:03.906Z,20.3
2023-05-22T08:57:03.959Z,20.3
2023-05-22T08:58:03.940Z,20.3
2023-05-22T08:59:03.909Z,20.3
2023-05-22T09:00:03.938Z,20.2
2023-05-22T09:01:03.974Z,20.1
2023-05-22T09:02:05.145Z,20.1
2023-05-22T09:03:04.017Z,20.1
2023-05-22T09:04:03.991Z,20.2
2023-05-22T09:05:03.925Z,20.3
2023-05-22T09:06:03.972Z,20.3
2023-05-22T09:07:03.941Z,20.3
2023-05-22T09:08:16.092Z,20.3
2023-05-22T09:09:03.941Z,20.3
2023-05-22T09:10:03.964Z,20.2
2023-05-22T09:11:03.929Z,20.2
2023-05-22T09:12:03.955Z,20.3
2023-05-22T09:13:03.933Z,20.3
2023-05-22T09:14:03.947Z,20.1
2023-05-22T09:15:03.998Z,20
2023-05-22T09:16:03.912Z,19.8
2023-05-22T09:17:03.964Z,19.9
2023-05-22T09:18:04.001Z,20.2
2023-05-22T09:19:03.964Z,20.2
2023-05-22T09:20:03.925Z,20
2023-05-22T09:21:08.958Z,19.9
2023-05-22T09:22:03.938Z,19.9
2023-05-22T09:23:03.946Z,19.9
2023-05-22T09:24:03.926Z,19.8
2023-05-22T09:25:04.639Z,19.7
2023-05-22T09:26:03.941Z,19.8
2023-05-22T09:27:03.930Z,19.8
2023-05-22T09:28:03.929Z,19.7
2023-05-22T09:29:03.958Z,19.8
2023-05-22T09:30:03.946Z,19.8
2023-05-22T09:31:04.546Z,19.8
2023-05-22T09:32:03.932Z,19.8
2023-05-22T09:33:04.041Z,19.8
2023-05-22T09:34:03.951Z,19.8
2023-05-22T09:35:03.933Z,19.7
2023-05-22T09:36:03.940Z,19.6
2023-05-22T09:37:03.968Z,19.5
2023-05-22T09:38:03.969Z,19.5
2023-05-22T09:39:03.972Z,19.5
2023-05-22T09:40:03.945Z,19.6
2023-05-22T09:41:03.944Z,19.7
2023-05-22T09:42:03.920Z,19.8
2023-05-22T09:43:03.918Z,19.9
2023-05-22T09:44:03.932Z,20
2023-05-22T09:45:03.945Z,20
2023-05-22T09:46:04.098Z,20
2023-05-22T09:47:03.944Z,20
2023-05-22T09:48:04.055Z,20
2023-05-22T09:49:03.924Z,20
2023-05-22T09:50:03.932Z,20
2023-05-22T09:51:04.003Z,20
2023-05-22T09:52:03.989Z,20.1
2023-05-22T09:53:03.958Z,20.2
2023-05-22T09:54:03.938Z,20.1
2023-05-22T09:55:03.943Z,19.7
2023-05-22T09:57:03.939Z,19.5
2023-05-22T09:58:03.933Z,19.5
2023-05-22T09:59:03.955Z,19.7
2023-05-22T10:00:03.941Z,19.6
2023-05-22T10:01:03.932Z,19.6
2023-05-22T10:02:04.024Z,19.6
2023-05-22T10:03:04.054Z,19.7
2023-05-22T10:04:03.987Z,19.8
2023-05-22T10:05:03.946Z,19.8
2023-05-22T10:07:03.955Z,19.5
2023-05-22T10:08:03.939Z,19.4
2023-05-22T10:09:03.971Z,19.5
2023-05-22T10:10:03.958Z,19.6
2023-05-22T10:11:03.936Z,19.6
2023-05-22T10:12:03.955Z,19.6
2023-05-22T10:13:03.957Z,19.5
2023-05-22T10:14:03.962Z,19.5
2023-05-22T10:15:03.951Z,19.5
2023-05-22T10:16:03.980Z,19.4
2023-05-22T10:17:03.939Z,19.3
2023-05-22T10:18:04.038Z,19.4
2023-05-22T10:19:03.972Z,19.3
2023-05-22T10:20:03.959Z,19.3
2023-05-22T10:21:03.958Z,19.2
2023-05-22T10:22:03.964Z,19.3
2023-05-22T10:23:03.959Z,19.3
2023-05-22T10:25:04.013Z,19.3
2023-05-22T10:27:03.946Z,19.7
2023-05-22T10:28:03.972Z,19.8
2023-05-22T10:29:03.973Z,20
2023-05-22T10:30:04.000Z,20.1
2023-05-22T10:31:03.956Z,20.2
2023-05-22T10:32:03.974Z,20.1
2023-05-22T10:33:04.013Z,20.1
2023-05-22T10:34:04.018Z,19.9
2023-05-22T10:35:03.963Z,19.6
2023-05-22T10:36:04.066Z,19.5
2023-05-22T10:37:16.517Z,19.5
2023-05-22T10:38:04.015Z,19.4
2023-05-22T10:39:03.955Z,19.5
2023-05-22T10:40:03.951Z,19.2
2023-05-22T10:41:03.949Z,19.2
2023-05-22T10:42:03.952Z,19.4
2023-05-22T10:43:04.006Z,19.5
2023-05-22T10:44:03.968Z,19.6
2023-05-22T10:45:03.950Z,19.8
2023-05-22T10:46:04.161Z,19.9
2023-05-22T10:47:03.963Z,19.9
2023-05-22T10:48:03.976Z,19.8
2023-05-22T10:49:03.963Z,19.9
2023-05-22T10:50:03.970Z,19.9
2023-05-22T10:52:03.949Z,20.1
2023-05-22T10:53:03.972Z,20.2
2023-05-22T10:54:03.965Z,20.1
2023-05-22T10:55:03.954Z,20
2023-05-22T10:56:03.942Z,20.1
2023-05-22T10:57:03.954Z,20.1
2023-05-22T10:58:04.975Z,19.9
2023-05-22T10:59:03.986Z,19.9
2023-05-22T11:00:03.962Z,19.9
2023-05-22T11:01:03.966Z,20
2023-05-22T11:03:17.144Z,19.8
2023-05-22T11:04:03.954Z,19.7
2023-05-22T11:05:04.114Z,19.8
2023-05-22T11:06:03.986Z,19.8
2023-05-22T11:07:03.968Z,19.9
2023-05-22T11:08:03.959Z,19.8
2023-05-22T11:09:03.963Z,19.8
2023-05-22T11:10:03.968Z,19.7
2023-05-22T11:11:03.962Z,19.8
2023-05-22T11:12:03.956Z,19.9
2023-05-22T11:13:03.961Z,19.9
2023-05-22T11:14:03.978Z,19.9
2023-05-22T11:15:03.958Z,19.9
2023-05-22T11:16:03.968Z,19.8
2023-05-22T11:17:04.003Z,19.7
2023-05-22T11:18:03.980Z,19.8
2023-05-22T11:19:21.179Z,19.9
2023-05-22T11:20:04.086Z,19.8
2023-05-22T11:22:03.963Z,19.8
2023-05-22T11:23:03.990Z,19.8
2023-05-22T11:25:03.972Z,20.3
2023-05-22T11:26:03.977Z,20.4
2023-05-22T11:27:03.985Z,20.5
2023-05-22T11:28:03.996Z,20.6
2023-05-22T11:29:03.990Z,20.7
2023-05-22T11:30:03.986Z,20.4
2023-05-22T11:31:04.045Z,20.4
2023-05-22T11:32:04.004Z,20.6
2023-05-22T11:33:04.020Z,20.2
2023-05-22T11:34:03.980Z,19.9
2023-05-22T11:35:03.963Z,20
2023-05-22T11:36:03.981Z,20
2023-05-22T11:37:03.978Z,19.9
2023-05-22T11:38:03.978Z,20
2023-05-22T11:39:03.979Z,20
2023-05-22T11:40:03.967Z,20.2
2023-05-22T11:41:03.974Z,20.1
2023-05-22T11:42:03.988Z,20.2
2023-05-22T11:43:04.056Z,20.2
2023-05-22T11:44:05.052Z,19.7
2023-05-22T11:45:03.990Z,19.6
2023-05-22T11:46:04.079Z,19.9
2023-05-22T11:47:04.021Z,20.1
2023-05-22T11:48:04.026Z,19.8
2023-05-22T11:49:03.978Z,19.9
2023-05-22T11:50:03.978Z,19.9
2023-05-22T11:51:03.987Z,19.9
2023-05-22T11:52:03.985Z,19.7
2023-05-22T11:54:03.975Z,19.7
2023-05-22T11:55:04.024Z,19.9
2023-05-22T11:56:03.985Z,20.1
2023-05-22T11:57:03.980Z,20
2023-05-22T11:58:03.977Z,20.3
2023-05-22T11:59:03.976Z,20.2
2023-05-22T12:00:04.018Z,19.9
2023-05-22T12:01:04.008Z,19.8
2023-05-22T12:02:04.001Z,19.6
2023-05-22T12:03:04.111Z,19.7
2023-05-22T12:04:04.093Z,19.9
2023-05-22T12:05:03.982Z,19.9
2023-05-22T12:06:04.008Z,20
2023-05-22T12:07:03.986Z,19.9
2023-05-22T12:08:03.987Z,19.9
2023-05-22T12:09:03.992Z,20
2023-05-22T12:10:03.984Z,20
2023-05-22T12:12:03.994Z,19.8
2023-05-22T12:13:03.953Z,19.9
2023-05-22T12:14:03.981Z,19.9
2023-05-22T12:15:03.966Z,19.7
2023-05-22T12:16:04.015Z,20
2023-05-22T12:17:03.990Z,19.8
2023-05-22T12:18:04.029Z,19.8
2023-05-22T12:19:04.016Z,19.6
2023-05-22T12:20:03.988Z,19.7
2023-05-22T12:21:03.989Z,19.7
2023-05-22T12:22:03.975Z,20
2023-05-22T12:23:03.981Z,20
2023-05-22T12:24:04.048Z,20.1
2023-05-22T12:25:04.009Z,19.8
2023-05-22T12:26:04.090Z,19.8
2023-05-22T12:27:04.064Z,19.8
2023-05-22T12:28:03.993Z,20
2023-05-22T12:29:04.218Z,19.8
2023-05-22T12:30:04.285Z,19.7
2023-05-22T12:31:04.224Z,20
2023-05-22T12:32:04.009Z,20.1
2023-05-22T12:33:04.016Z,20.1
2023-05-22T12:34:03.978Z,19.8
2023-05-22T12:35:03.990Z,19.9
2023-05-22T12:37:03.979Z,19.8
2023-05-22T12:38:04.050Z,19.9
2023-05-22T12:39:04.040Z,19.6
2023-05-22T12:40:03.974Z,19.8
2023-05-22T12:41:04.059Z,20
2023-05-22T12:43:04.007Z,20.4
2023-05-22T12:44:03.987Z,19.8
2023-05-22T12:45:03.999Z,19.7
2023-05-22T12:46:04.059Z,19.9
2023-05-22T12:47:03.986Z,20.3
2023-05-22T12:48:04.022Z,20.5
2023-05-22T12:49:04.004Z,20.2
2023-05-22T12:50:04.006Z,20.4
2023-05-22T12:51:03.971Z,20.7
2023-05-22T12:52:03.989Z,20.4
2023-05-22T12:53:03.986Z,20.4
2023-05-22T12:54:03.992Z,20.3
2023-05-22T12:55:03.971Z,20.5
2023-05-22T12:56:04.001Z,20.7
2023-05-22T12:57:03.978Z,21
2023-05-22T12:58:04.196Z,21
2023-05-22T12:59:03.979Z,21.1
2023-05-22T13:00:03.991Z,20.5
2023-05-22T13:01:03.990Z,20.4
2023-05-22T13:02:04.129Z,20.6
2023-05-22T13:03:04.094Z,20.5
2023-05-22T13:04:03.999Z,20
2023-05-22T13:05:04.124Z,20.1
2023-05-22T13:07:03.985Z,19.5
2023-05-22T13:08:04.008Z,19.6
2023-05-22T13:10:04.083Z,19.8
2023-05-22T13:11:04.001Z,19.9
2023-05-22T13:12:04.026Z,19.8
2023-05-22T13:13:04.006Z,20
2023-05-22T13:15:03.992Z,20
2023-05-22T13:17:03.986Z,19.3
2023-05-22T13:18:04.041Z,19.4
2023-05-22T13:19:04.045Z,19.4
2023-05-22T13:20:04.007Z,19.3
2023-05-22T13:21:04.001Z,19.1
2023-05-22T13:22:03.992Z,19.1
2023-05-22T13:23:04.012Z,19.3
2023-05-22T13:24:04.014Z,19.4
2023-05-22T13:25:03.988Z,19.1
2023-05-22T13:27:03.989Z,19.6
2023-05-22T13:28:04.009Z,19.7
2023-05-22T13:29:03.990Z,19.9
2023-05-22T13:30:03.996Z,20.1
2023-05-22T13:31:04.026Z,20.1
2023-05-22T13:32:04.025Z,20
2023-05-22T13:33:04.052Z,20.2
2023-05-22T13:34:04.039Z,20.2
2023-05-22T13:35:03.992Z,19.8
2023-05-22T13:36:03.978Z,19.7
2023-05-22T13:37:03.982Z,19.4
2023-05-22T13:38:04.074Z,19.5
2023-05-22T13:39:04.025Z,19.3
2023-05-22T13:40:04.026Z,19.3
2023-05-22T13:41:03.990Z,19.4
2023-05-22T13:42:04.009Z,19.4
2023-05-22T13:43:04.023Z,19.4
2023-05-22T13:44:03.992Z,19.4
2023-05-22T13:45:03.999Z,19.5
2023-05-22T13:46:04.005Z,19.6
2023-05-22T13:47:04.072Z,19.8
2023-05-22T13:48:04.044Z,19.7
2023-05-22T13:49:04.007Z,19.8
2023-05-22T13:50:03.997Z,19.9
2023-05-22T13:52:04.022Z,20.1
2023-05-22T13:53:04.009Z,20.2
2023-05-22T13:54:04.045Z,20.1
2023-05-22T13:55:03.987Z,19.4
2023-05-22T13:56:04.026Z,19.5
2023-05-22T13:58:03.998Z,19.8
2023-05-22T13:59:04.038Z,19.7
2023-05-22T14:00:04.020Z,19.6
2023-05-22T14:02:04.044Z,19.9
2023-05-22T14:03:04.101Z,19.9
2023-05-22T14:04:04.050Z,20
2023-05-22T14:05:03.993Z,20.3
2023-05-22T14:06:04.016Z,20.7
2023-05-22T14:07:04.028Z,19.9
2023-05-22T14:08:03.993Z,19.8